sensor_id;sensor_type;location;lat;lon;timestamp;P1;durP1;ratioP1;P2;durP2;ratioP2
14734;SDS011;7458;49.002;8.472;2022-07-21T00:00:14;15.80;;;13.35;;
14734;SDS011;7458;49.002;8.472;2022-07-21T00:02:41;17.63;;;14.82;;
14734;SDS011;7458;49.002;8.472;2022-07-21T00:05:07;16.88;;;13.60;;
14734;SDS011;7458;49.002;8.472;2022-07-21T00:07:33;16.23;;;14.73;;
14734;SDS011;7458;49.002;8.472;2022-07-21T00:09:59;18.38;;;15.82;;
14734;SDS011;7458;49.002;8.472;2022-07-21T00:12:25;15.38;;;13.70;;
14734;SDS011;7458;49.002;8.472;2022-07-21T00:14:54;21.77;;;14.00;;
14734;SDS011;7458;49.002;8.472;2022-07-21T00:17:20;21.58;;;13.68;;
14734;SDS011;7458;49.002;8.472;2022-07-21T00:19:46;14.80;;;13.38;;
14734;SDS011;7458;49.002;8.472;2022-07-21T00:22:11;14.88;;;13.35;;
14734;SDS011;7458;49.002;8.472;2022-07-21T00:24:37;17.73;;;13.13;;
14734;SDS011;7458;49.002;8.472;2022-07-21T00:27:03;15.05;;;13.57;;
14734;SDS011;7458;49.002;8.472;2022-07-21T00:29:29;13.20;;;11.85;;
14734;SDS011;7458;49.002;8.472;2022-07-21T00:31:54;12.48;;;11.38;;
14734;SDS011;7458;49.002;8.472;2022-07-21T00:34:20;15.20;;;13.13;;
14734;SDS011;7458;49.002;8.472;2022-07-21T00:36:46;14.85;;;12.60;;
14734;SDS011;7458;49.002;8.472;2022-07-21T00:39:12;14.00;;;11.80;;
14734;SDS011;7458;49.002;8.472;2022-07-21T00:41:38;16.75;;;13.55;;
14734;SDS011;7458;49.002;8.472;2022-07-21T00:44:03;15.52;;;13.98;;
14734;SDS011;7458;49.002;8.472;2022-07-21T00:46:29;14.15;;;12.82;;
14734;SDS011;7458;49.002;8.472;2022-07-21T00:48:56;12.52;;;11.23;;
14734;SDS011;7458;49.002;8.472;2022-07-21T00:51:22;19.23;;;12.20;;
14734;SDS011;7458;49.002;8.472;2022-07-21T00:53:48;19.00;;;12.32;;
14734;SDS011;7458;49.002;8.472;2022-07-21T00:56:13;15.75;;;12.27;;
14734;SDS011;7458;49.002;8.472;2022-07-21T00:58:41;14.73;;;12.98;;
14734;SDS011;7458;49.002;8.472;2022-07-21T01:01:07;15.85;;;12.02;;
14734;SDS011;7458;49.002;8.472;2022-07-21T01:03:33;13.10;;;11.55;;
14734;SDS011;7458;49.002;8.472;2022-07-21T01:05:58;13.25;;;12.07;;
14734;SDS011;7458;49.002;8.472;2022-07-21T01:08:24;13.90;;;12.70;;
14734;SDS011;7458;49.002;8.472;2022-07-21T01:10:52;13.52;;;12.13;;
14734;SDS011;7458;49.002;8.472;2022-07-21T01:13:18;13.45;;;11.50;;
14734;SDS011;7458;49.002;8.472;2022-07-21T01:15:44;12.48;;;11.18;;
14734;SDS011;7458;49.002;8.472;2022-07-21T01:18:10;15.43;;;10.70;;
14734;SDS011;7458;49.002;8.472;2022-07-21T01:20:36;16.17;;;13.50;;
14734;SDS011;7458;49.002;8.472;2022-07-21T01:23:09;13.18;;;11.82;;
14734;SDS011;7458;49.002;8.472;2022-07-21T01:25:36;15.20;;;12.43;;
14734;SDS011;7458;49.002;8.472;2022-07-21T01:28:01;13.60;;;12.20;;
14734;SDS011;7458;49.002;8.472;2022-07-21T01:30:27;16.63;;;12.35;;
14734;SDS011;7458;49.002;8.472;2022-07-21T01:32:53;13.65;;;12.25;;
14734;SDS011;7458;49.002;8.472;2022-07-21T01:35:19;12.82;;;11.63;;
14734;SDS011;7458;49.002;8.472;2022-07-21T01:37:45;16.55;;;12.52;;
14734;SDS011;7458;49.002;8.472;2022-07-21T01:40:13;13.60;;;11.77;;
14734;SDS011;7458;49.002;8.472;2022-07-21T01:45:24;12.90;;;11.65;;
14734;SDS011;7458;49.002;8.472;2022-07-21T01:47:50;14.38;;;12.35;;
14734;SDS011;7458;49.002;8.472;2022-07-21T01:50:16;13.93;;;12.32;;
14734;SDS011;7458;49.002;8.472;2022-07-21T01:52:44;13.45;;;12.15;;
14734;SDS011;7458;49.002;8.472;2022-07-21T01:55:10;19.35;;;12.45;;
14734;SDS011;7458;49.002;8.472;2022-07-21T01:57:36;12.55;;;11.35;;
14734;SDS011;7458;49.002;8.472;2022-07-21T02:00:03;13.20;;;11.13;;
14734;SDS011;7458;49.002;8.472;2022-07-21T02:02:30;12.40;;;11.20;;
14734;SDS011;7458;49.002;8.472;2022-07-21T02:04:55;12.50;;;11.20;;
14734;SDS011;7458;49.002;8.472;2022-07-21T02:07:21;12.57;;;11.40;;
14734;SDS011;7458;49.002;8.472;2022-07-21T02:09:47;13.68;;;11.85;;
14734;SDS011;7458;49.002;8.472;2022-07-21T02:12:13;14.85;;;12.82;;
14734;SDS011;7458;49.002;8.472;2022-07-21T02:14:38;14.45;;;12.45;;
14734;SDS011;7458;49.002;8.472;2022-07-21T02:17:04;13.07;;;11.73;;
14734;SDS011;7458;49.002;8.472;2022-07-21T02:19:30;17.40;;;12.88;;
14734;SDS011;7458;49.002;8.472;2022-07-21T02:21:56;14.50;;;11.60;;
14734;SDS011;7458;49.002;8.472;2022-07-21T02:24:22;15.00;;;12.68;;
14734;SDS011;7458;49.002;8.472;2022-07-21T02:26:47;13.20;;;12.07;;
14734;SDS011;7458;49.002;8.472;2022-07-21T02:29:13;12.30;;;10.93;;
14734;SDS011;7458;49.002;8.472;2022-07-21T02:31:42;12.85;;;10.75;;
14734;SDS011;7458;49.002;8.472;2022-07-21T02:34:08;14.18;;;11.18;;
14734;SDS011;7458;49.002;8.472;2022-07-21T02:36:33;18.02;;;13.30;;
14734;SDS011;7458;49.002;8.472;2022-07-21T02:39:00;13.93;;;12.63;;
14734;SDS011;7458;49.002;8.472;2022-07-21T02:41:26;15.38;;;11.45;;
14734;SDS011;7458;49.002;8.472;2022-07-21T02:43:52;12.23;;;10.93;;
14734;SDS011;7458;49.002;8.472;2022-07-21T02:46:18;13.68;;;12.38;;
14734;SDS011;7458;49.002;8.472;2022-07-21T02:48:44;14.63;;;12.10;;
14734;SDS011;7458;49.002;8.472;2022-07-21T02:51:10;18.58;;;11.18;;
14734;SDS011;7458;49.002;8.472;2022-07-21T02:53:35;12.77;;;11.45;;
14734;SDS011;7458;49.002;8.472;2022-07-21T02:56:01;13.07;;;11.02;;
14734;SDS011;7458;49.002;8.472;2022-07-21T02:58:27;13.48;;;11.38;;
14734;SDS011;7458;49.002;8.472;2022-07-21T03:00:56;12.85;;;11.55;;
14734;SDS011;7458;49.002;8.472;2022-07-21T03:03:26;12.20;;;11.10;;
14734;SDS011;7458;49.002;8.472;2022-07-21T03:05:58;16.00;;;11.50;;
14734;SDS011;7458;49.002;8.472;2022-07-21T03:08:25;15.40;;;13.30;;
14734;SDS011;7458;49.002;8.472;2022-07-21T03:10:52;15.02;;;13.15;;
14734;SDS011;7458;49.002;8.472;2022-07-21T03:13:18;16.45;;;13.98;;
14734;SDS011;7458;49.002;8.472;2022-07-21T03:15:44;13.23;;;11.93;;
14734;SDS011;7458;49.002;8.472;2022-07-21T03:18:10;15.68;;;12.48;;
14734;SDS011;7458;49.002;8.472;2022-07-21T03:20:37;14.85;;;13.25;;
14734;SDS011;7458;49.002;8.472;2022-07-21T03:23:05;14.70;;;13.20;;
14734;SDS011;7458;49.002;8.472;2022-07-21T03:25:31;15.52;;;14.05;;
14734;SDS011;7458;49.002;8.472;2022-07-21T03:27:58;15.32;;;13.30;;
14734;SDS011;7458;49.002;8.472;2022-07-21T03:30:24;15.07;;;12.68;;
14734;SDS011;7458;49.002;8.472;2022-07-21T03:32:51;13.93;;;12.55;;
14734;SDS011;7458;49.002;8.472;2022-07-21T03:35:17;14.13;;;11.65;;
14734;SDS011;7458;49.002;8.472;2022-07-21T03:37:45;14.77;;;12.45;;
14734;SDS011;7458;49.002;8.472;2022-07-21T03:40:15;14.18;;;12.77;;
14734;SDS011;7458;49.002;8.472;2022-07-21T03:42:47;14.80;;;12.85;;
14734;SDS011;7458;49.002;8.472;2022-07-21T03:45:18;16.17;;;14.07;;
14734;SDS011;7458;49.002;8.472;2022-07-21T03:47:46;18.42;;;12.75;;
14734;SDS011;7458;49.002;8.472;2022-07-21T03:50:12;14.20;;;12.77;;
14734;SDS011;7458;49.002;8.472;2022-07-21T03:52:38;17.65;;;13.30;;
14734;SDS011;7458;49.002;8.472;2022-07-21T03:55:04;15.85;;;14.25;;
14734;SDS011;7458;49.002;8.472;2022-07-21T03:57:37;16.30;;;14.60;;
14734;SDS011;7458;49.002;8.472;2022-07-21T04:00:32;20.88;;;14.30;;
14734;SDS011;7458;49.002;8.472;2022-07-21T04:03:05;16.63;;;14.73;;
14734;SDS011;7458;49.002;8.472;2022-07-21T04:05:32;16.73;;;14.52;;
14734;SDS011;7458;49.002;8.472;2022-07-21T04:07:59;16.23;;;14.68;;
14734;SDS011;7458;49.002;8.472;2022-07-21T04:10:27;17.63;;;15.15;;
14734;SDS011;7458;49.002;8.472;2022-07-21T04:12:58;17.48;;;15.82;;
14734;SDS011;7458;49.002;8.472;2022-07-21T04:15:28;16.70;;;14.95;;
14734;SDS011;7458;49.002;8.472;2022-07-21T04:17:54;17.52;;;14.10;;
14734;SDS011;7458;49.002;8.472;2022-07-21T04:20:21;17.70;;;15.23;;
14734;SDS011;7458;49.002;8.472;2022-07-21T04:22:47;15.02;;;13.63;;
14734;SDS011;7458;49.002;8.472;2022-07-21T04:25:15;16.77;;;15.15;;
14734;SDS011;7458;49.002;8.472;2022-07-21T04:27:43;19.92;;;17.27;;
14734;SDS011;7458;49.002;8.472;2022-07-21T04:30:11;15.82;;;14.05;;
14734;SDS011;7458;49.002;8.472;2022-07-21T04:32:41;17.08;;;15.35;;
14734;SDS011;7458;49.002;8.472;2022-07-21T04:35:08;17.67;;;15.82;;
14734;SDS011;7458;49.002;8.472;2022-07-21T04:37:35;18.40;;;15.02;;
14734;SDS011;7458;49.002;8.472;2022-07-21T04:40:02;18.02;;;16.27;;
14734;SDS011;7458;49.002;8.472;2022-07-21T04:42:31;17.50;;;15.80;;
14734;SDS011;7458;49.002;8.472;2022-07-21T04:44:57;18.52;;;16.60;;
14734;SDS011;7458;49.002;8.472;2022-07-21T04:47:23;40.00;;;35.63;;
14734;SDS011;7458;49.002;8.472;2022-07-21T04:49:49;18.98;;;16.65;;
14734;SDS011;7458;49.002;8.472;2022-07-21T04:52:15;15.13;;;13.57;;
14734;SDS011;7458;49.002;8.472;2022-07-21T04:54:40;18.20;;;16.50;;
14734;SDS011;7458;49.002;8.472;2022-07-21T04:57:06;20.52;;;17.10;;
14734;SDS011;7458;49.002;8.472;2022-07-21T04:59:33;25.33;;;17.13;;
14734;SDS011;7458;49.002;8.472;2022-07-21T05:01:59;18.38;;;16.50;;
14734;SDS011;7458;49.002;8.472;2022-07-21T05:04:26;19.02;;;16.58;;
14734;SDS011;7458;49.002;8.472;2022-07-21T05:06:52;18.20;;;16.60;;
14734;SDS011;7458;49.002;8.472;2022-07-21T05:09:18;17.92;;;16.13;;
14734;SDS011;7458;49.002;8.472;2022-07-21T05:11:44;19.42;;;17.52;;
14734;SDS011;7458;49.002;8.472;2022-07-21T05:14:10;19.80;;;17.60;;
14734;SDS011;7458;49.002;8.472;2022-07-21T05:16:36;20.88;;;17.60;;
14734;SDS011;7458;49.002;8.472;2022-07-21T05:19:02;19.60;;;17.40;;
14734;SDS011;7458;49.002;8.472;2022-07-21T05:21:28;18.52;;;16.65;;
14734;SDS011;7458;49.002;8.472;2022-07-21T05:23:54;19.48;;;16.83;;
14734;SDS011;7458;49.002;8.472;2022-07-21T05:26:20;18.65;;;16.83;;
14734;SDS011;7458;49.002;8.472;2022-07-21T05:28:46;22.35;;;16.75;;
14734;SDS011;7458;49.002;8.472;2022-07-21T05:31:12;18.95;;;16.98;;
14734;SDS011;7458;49.002;8.472;2022-07-21T05:33:38;17.88;;;16.17;;
14734;SDS011;7458;49.002;8.472;2022-07-21T05:36:04;20.45;;;16.00;;
14734;SDS011;7458;49.002;8.472;2022-07-21T05:38:30;19.35;;;17.13;;
14734;SDS011;7458;49.002;8.472;2022-07-21T05:40:57;22.50;;;16.73;;
14734;SDS011;7458;49.002;8.472;2022-07-21T05:43:27;18.75;;;16.90;;
14734;SDS011;7458;49.002;8.472;2022-07-21T05:45:55;17.15;;;15.38;;
14734;SDS011;7458;49.002;8.472;2022-07-21T05:48:21;20.90;;;17.83;;
14734;SDS011;7458;49.002;8.472;2022-07-21T05:50:47;16.38;;;14.82;;
14734;SDS011;7458;49.002;8.472;2022-07-21T05:53:13;15.48;;;14.05;;
14734;SDS011;7458;49.002;8.472;2022-07-21T05:55:39;17.42;;;14.85;;
14734;SDS011;7458;49.002;8.472;2022-07-21T05:58:04;17.42;;;15.70;;
14734;SDS011;7458;49.002;8.472;2022-07-21T06:00:30;16.00;;;14.32;;
14734;SDS011;7458;49.002;8.472;2022-07-21T06:02:56;18.75;;;16.77;;
14734;SDS011;7458;49.002;8.472;2022-07-21T06:05:22;18.48;;;16.77;;
14734;SDS011;7458;49.002;8.472;2022-07-21T06:07:47;15.45;;;13.98;;
14734;SDS011;7458;49.002;8.472;2022-07-21T06:10:13;18.52;;;16.63;;
14734;SDS011;7458;49.002;8.472;2022-07-21T06:12:39;17.23;;;15.52;;
14734;SDS011;7458;49.002;8.472;2022-07-21T06:15:06;16.60;;;14.68;;
14734;SDS011;7458;49.002;8.472;2022-07-21T06:17:42;18.33;;;16.60;;
14734;SDS011;7458;49.002;8.472;2022-07-21T06:20:10;17.60;;;15.90;;
14734;SDS011;7458;49.002;8.472;2022-07-21T06:22:38;15.68;;;13.93;;
14734;SDS011;7458;49.002;8.472;2022-07-21T06:25:04;18.33;;;14.55;;
14734;SDS011;7458;49.002;8.472;2022-07-21T06:27:30;15.18;;;13.05;;
14734;SDS011;7458;49.002;8.472;2022-07-21T06:29:57;15.27;;;12.65;;
14734;SDS011;7458;49.002;8.472;2022-07-21T06:32:24;13.48;;;12.25;;
14734;SDS011;7458;49.002;8.472;2022-07-21T06:34:50;13.55;;;12.25;;
14734;SDS011;7458;49.002;8.472;2022-07-21T06:37:16;13.55;;;11.55;;
14734;SDS011;7458;49.002;8.472;2022-07-21T06:39:42;13.70;;;11.68;;
14734;SDS011;7458;49.002;8.472;2022-07-21T06:42:08;12.75;;;11.45;;
14734;SDS011;7458;49.002;8.472;2022-07-21T06:44:34;11.38;;;10.23;;
14734;SDS011;7458;49.002;8.472;2022-07-21T06:47:00;12.68;;;10.07;;
14734;SDS011;7458;49.002;8.472;2022-07-21T06:49:32;12.73;;;9.85;;
14734;SDS011;7458;49.002;8.472;2022-07-21T06:51:58;10.40;;;9.40;;
14734;SDS011;7458;49.002;8.472;2022-07-21T06:54:24;9.90;;;8.98;;
14734;SDS011;7458;49.002;8.472;2022-07-21T06:56:50;10.00;;;8.82;;
14734;SDS011;7458;49.002;8.472;2022-07-21T06:59:16;11.63;;;8.80;;
14734;SDS011;7458;49.002;8.472;2022-07-21T07:01:42;10.35;;;9.25;;
14734;SDS011;7458;49.002;8.472;2022-07-21T07:04:08;9.43;;;8.55;;
14734;SDS011;7458;49.002;8.472;2022-07-21T07:06:33;10.07;;;9.15;;
14734;SDS011;7458;49.002;8.472;2022-07-21T07:08:59;8.90;;;8.10;;
14734;SDS011;7458;49.002;8.472;2022-07-21T07:11:25;9.32;;;8.40;;
14734;SDS011;7458;49.002;8.472;2022-07-21T07:13:51;10.07;;;9.13;;
14734;SDS011;7458;49.002;8.472;2022-07-21T07:16:17;11.32;;;9.65;;
14734;SDS011;7458;49.002;8.472;2022-07-21T07:18:42;15.70;;;10.23;;
14734;SDS011;7458;49.002;8.472;2022-07-21T07:21:08;11.68;;;8.65;;
14734;SDS011;7458;49.002;8.472;2022-07-21T07:23:34;9.35;;;8.45;;
14734;SDS011;7458;49.002;8.472;2022-07-21T07:26:00;14.52;;;10.00;;
14734;SDS011;7458;49.002;8.472;2022-07-21T07:28:25;11.27;;;10.07;;
14734;SDS011;7458;49.002;8.472;2022-07-21T07:30:51;13.35;;;9.40;;
14734;SDS011;7458;49.002;8.472;2022-07-21T07:33:17;12.05;;;9.65;;
14734;SDS011;7458;49.002;8.472;2022-07-21T07:35:43;10.38;;;9.48;;
14734;SDS011;7458;49.002;8.472;2022-07-21T07:38:12;11.02;;;9.20;;
14734;SDS011;7458;49.002;8.472;2022-07-21T07:40:40;14.43;;;8.90;;
14734;SDS011;7458;49.002;8.472;2022-07-21T07:43:06;10.50;;;9.48;;
14734;SDS011;7458;49.002;8.472;2022-07-21T07:45:35;12.70;;;9.55;;
14734;SDS011;7458;49.002;8.472;2022-07-21T07:48:02;10.10;;;8.60;;
14734;SDS011;7458;49.002;8.472;2022-07-21T07:50:29;10.02;;;9.07;;
14734;SDS011;7458;49.002;8.472;2022-07-21T07:52:55;9.90;;;8.90;;
14734;SDS011;7458;49.002;8.472;2022-07-21T07:55:20;12.77;;;9.82;;
14734;SDS011;7458;49.002;8.472;2022-07-21T07:57:46;11.48;;;8.77;;
14734;SDS011;7458;49.002;8.472;2022-07-21T08:00:13;10.13;;;9.15;;
14734;SDS011;7458;49.002;8.472;2022-07-21T08:02:43;12.95;;;8.85;;
14734;SDS011;7458;49.002;8.472;2022-07-21T08:05:10;9.73;;;8.85;;
14734;SDS011;7458;49.002;8.472;2022-07-21T08:07:37;9.85;;;8.85;;
14734;SDS011;7458;49.002;8.472;2022-07-21T08:10:05;12.45;;;9.68;;
14734;SDS011;7458;49.002;8.472;2022-07-21T08:12:39;14.55;;;9.23;;
14734;SDS011;7458;49.002;8.472;2022-07-21T08:15:06;10.50;;;8.65;;
14734;SDS011;7458;49.002;8.472;2022-07-21T08:17:33;12.27;;;9.52;;
14734;SDS011;7458;49.002;8.472;2022-07-21T08:19:59;12.90;;;9.55;;
14734;SDS011;7458;49.002;8.472;2022-07-21T08:22:25;10.10;;;7.93;;
14734;SDS011;7458;49.002;8.472;2022-07-21T08:24:51;10.25;;;9.20;;
14734;SDS011;7458;49.002;8.472;2022-07-21T08:27:17;10.30;;;9.23;;
14734;SDS011;7458;49.002;8.472;2022-07-21T08:29:43;8.55;;;7.75;;
14734;SDS011;7458;49.002;8.472;2022-07-21T08:32:09;11.55;;;8.20;;
14734;SDS011;7458;49.002;8.472;2022-07-21T08:34:35;10.02;;;9.07;;
14734;SDS011;7458;49.002;8.472;2022-07-21T08:37:01;10.65;;;9.73;;
14734;SDS011;7458;49.002;8.472;2022-07-21T08:39:27;9.82;;;8.82;;
14734;SDS011;7458;49.002;8.472;2022-07-21T08:41:53;10.00;;;8.93;;
14734;SDS011;7458;49.002;8.472;2022-07-21T08:44:21;12.18;;;9.10;;
14734;SDS011;7458;49.002;8.472;2022-07-21T08:46:49;10.30;;;9.30;;
14734;SDS011;7458;49.002;8.472;2022-07-21T08:49:16;12.00;;;10.73;;
14734;SDS011;7458;49.002;8.472;2022-07-21T08:51:48;15.30;;;10.05;;
14734;SDS011;7458;49.002;8.472;2022-07-21T08:54:16;10.75;;;9.65;;
14734;SDS011;7458;49.002;8.472;2022-07-21T08:56:47;20.05;;;11.32;;
14734;SDS011;7458;49.002;8.472;2022-07-21T08:59:14;10.90;;;9.85;;
14734;SDS011;7458;49.002;8.472;2022-07-21T09:01:40;13.20;;;11.30;;
14734;SDS011;7458;49.002;8.472;2022-07-21T09:09:28;11.32;;;10.20;;
14734;SDS011;7458;49.002;8.472;2022-07-21T09:11:56;15.80;;;11.98;;
14734;SDS011;7458;49.002;8.472;2022-07-21T09:14:25;11.82;;;9.77;;
14734;SDS011;7458;49.002;8.472;2022-07-21T09:16:55;12.07;;;11.05;;
14734;SDS011;7458;49.002;8.472;2022-07-21T09:21:50;11.85;;;9.25;;
14734;SDS011;7458;49.002;8.472;2022-07-21T09:29:25;11.43;;;7.95;;
14734;SDS011;7458;49.002;8.472;2022-07-21T09:31:51;7.75;;;7.05;;
14734;SDS011;7458;49.002;8.472;2022-07-21T09:34:17;12.68;;;9.43;;
14734;SDS011;7458;49.002;8.472;2022-07-21T09:36:56;10.05;;;9.05;;
14734;SDS011;7458;49.002;8.472;2022-07-21T09:42:33;7.50;;;6.72;;
14734;SDS011;7458;49.002;8.472;2022-07-21T09:45:09;7.70;;;7.05;;
14734;SDS011;7458;49.002;8.472;2022-07-21T09:47:38;8.00;;;7.20;;
14734;SDS011;7458;49.002;8.472;2022-07-21T09:50:07;8.65;;;7.82;;
14734;SDS011;7458;49.002;8.472;2022-07-21T09:52:36;8.18;;;7.47;;
14734;SDS011;7458;49.002;8.472;2022-07-21T09:55:07;6.72;;;6.13;;
14734;SDS011;7458;49.002;8.472;2022-07-21T09:57:35;8.30;;;7.60;;
14734;SDS011;7458;49.002;8.472;2022-07-21T10:00:03;8.45;;;7.15;;
14734;SDS011;7458;49.002;8.472;2022-07-21T10:02:37;10.93;;;7.78;;
14734;SDS011;7458;49.002;8.472;2022-07-21T10:05:05;7.55;;;6.93;;
14734;SDS011;7458;49.002;8.472;2022-07-21T10:07:39;7.80;;;6.97;;
14734;SDS011;7458;49.002;8.472;2022-07-21T10:10:08;8.55;;;7.22;;
14734;SDS011;7458;49.002;8.472;2022-07-21T10:12:35;9.85;;;7.57;;
14734;SDS011;7458;49.002;8.472;2022-07-21T10:15:00;10.13;;;7.13;;
14734;SDS011;7458;49.002;8.472;2022-07-21T10:17:27;8.65;;;5.60;;
14734;SDS011;7458;49.002;8.472;2022-07-21T10:20:10;8.80;;;6.80;;
14734;SDS011;7458;49.002;8.472;2022-07-21T10:23:10;8.20;;;7.40;;
14734;SDS011;7458;49.002;8.472;2022-07-21T10:25:51;7.18;;;6.05;;
14734;SDS011;7458;49.002;8.472;2022-07-21T10:28:21;7.95;;;6.45;;
14734;SDS011;7458;49.002;8.472;2022-07-21T10:31:14;7.18;;;6.47;;
14734;SDS011;7458;49.002;8.472;2022-07-21T10:33:57;11.13;;;6.75;;
14734;SDS011;7458;49.002;8.472;2022-07-21T10:41:50;7.43;;;5.90;;
14734;SDS011;7458;49.002;8.472;2022-07-21T10:57:41;6.82;;;5.60;;
14734;SDS011;7458;49.002;8.472;2022-07-21T11:00:36;5.93;;;5.32;;
14734;SDS011;7458;49.002;8.472;2022-07-21T11:03:03;5.93;;;4.85;;
14734;SDS011;7458;49.002;8.472;2022-07-21T11:08:32;5.05;;;4.20;;
14734;SDS011;7458;49.002;8.472;2022-07-21T11:11:07;7.60;;;4.88;;
14734;SDS011;7458;49.002;8.472;2022-07-21T11:22:08;5.28;;;4.78;;
14734;SDS011;7458;49.002;8.472;2022-07-21T11:24:57;4.68;;;3.78;;
14734;SDS011;7458;49.002;8.472;2022-07-21T11:27:31;4.85;;;4.38;;
14734;SDS011;7458;49.002;8.472;2022-07-21T11:30:00;4.63;;;3.88;;
14734;SDS011;7458;49.002;8.472;2022-07-21T11:32:30;4.57;;;4.13;;
14734;SDS011;7458;49.002;8.472;2022-07-21T11:34:57;5.85;;;4.07;;
14734;SDS011;7458;49.002;8.472;2022-07-21T11:42:38;5.53;;;4.55;;
14734;SDS011;7458;49.002;8.472;2022-07-21T11:45:05;4.43;;;4.03;;
14734;SDS011;7458;49.002;8.472;2022-07-21T11:47:33;6.28;;;4.45;;
14734;SDS011;7458;49.002;8.472;2022-07-21T11:50:00;5.28;;;4.78;;
14734;SDS011;7458;49.002;8.472;2022-07-21T11:52:32;8.60;;;4.45;;
14734;SDS011;7458;49.002;8.472;2022-07-21T11:55:02;5.13;;;4.63;;
14734;SDS011;7458;49.002;8.472;2022-07-21T11:57:30;4.93;;;4.43;;
14734;SDS011;7458;49.002;8.472;2022-07-21T11:59:59;4.72;;;4.15;;
14734;SDS011;7458;49.002;8.472;2022-07-21T12:02:26;4.38;;;3.97;;
14734;SDS011;7458;49.002;8.472;2022-07-21T12:07:23;4.47;;;4.07;;
14734;SDS011;7458;49.002;8.472;2022-07-21T12:10:01;5.20;;;4.22;;
14734;SDS011;7458;49.002;8.472;2022-07-21T12:13:03;5.30;;;4.78;;
14734;SDS011;7458;49.002;8.472;2022-07-21T12:15:32;7.70;;;4.00;;
14734;SDS011;7458;49.002;8.472;2022-07-21T12:20:42;11.20;;;4.80;;
14734;SDS011;7458;49.002;8.472;2022-07-21T12:23:25;5.50;;;4.75;;
14734;SDS011;7458;49.002;8.472;2022-07-21T12:25:54;4.63;;;4.13;;
14734;SDS011;7458;49.002;8.472;2022-07-21T12:28:40;6.88;;;4.38;;
14734;SDS011;7458;49.002;8.472;2022-07-21T12:31:13;10.48;;;4.45;;
14734;SDS011;7458;49.002;8.472;2022-07-21T12:33:46;6.38;;;5.35;;
14734;SDS011;7458;49.002;8.472;2022-07-21T12:36:14;5.43;;;4.72;;
14734;SDS011;7458;49.002;8.472;2022-07-21T12:38:40;4.82;;;4.18;;
14734;SDS011;7458;49.002;8.472;2022-07-21T12:41:10;6.68;;;4.38;;
14734;SDS011;7458;49.002;8.472;2022-07-21T12:43:52;6.22;;;3.97;;
14734;SDS011;7458;49.002;8.472;2022-07-21T12:46:30;5.38;;;4.60;;
14734;SDS011;7458;49.002;8.472;2022-07-21T12:49:07;4.65;;;4.22;;
14734;SDS011;7458;49.002;8.472;2022-07-21T12:51:35;5.20;;;4.70;;
14734;SDS011;7458;49.002;8.472;2022-07-21T12:54:01;7.50;;;3.95;;
14734;SDS011;7458;49.002;8.472;2022-07-21T12:56:31;4.85;;;4.25;;
14734;SDS011;7458;49.002;8.472;2022-07-21T12:58:59;5.30;;;4.10;;
14734;SDS011;7458;49.002;8.472;2022-07-21T13:01:28;5.63;;;4.22;;
14734;SDS011;7458;49.002;8.472;2022-07-21T13:03:58;5.40;;;4.50;;
14734;SDS011;7458;49.002;8.472;2022-07-21T13:06:26;4.50;;;4.07;;
14734;SDS011;7458;49.002;8.472;2022-07-21T13:08:52;4.68;;;4.22;;
14734;SDS011;7458;49.002;8.472;2022-07-21T13:11:18;5.22;;;4.72;;
14734;SDS011;7458;49.002;8.472;2022-07-21T13:13:45;5.47;;;4.45;;
14734;SDS011;7458;49.002;8.472;2022-07-21T13:16:13;5.55;;;4.90;;
14734;SDS011;7458;49.002;8.472;2022-07-21T13:18:40;6.32;;;5.57;;
14734;SDS011;7458;49.002;8.472;2022-07-21T13:21:06;7.50;;;4.28;;
14734;SDS011;7458;49.002;8.472;2022-07-21T13:23:32;9.85;;;6.95;;
14734;SDS011;7458;49.002;8.472;2022-07-21T13:25:59;9.23;;;7.70;;
14734;SDS011;7458;49.002;8.472;2022-07-21T13:28:24;5.50;;;4.35;;
14734;SDS011;7458;49.002;8.472;2022-07-21T13:30:50;4.18;;;3.58;;
14734;SDS011;7458;49.002;8.472;2022-07-21T13:33:16;4.95;;;4.47;;
14734;SDS011;7458;49.002;8.472;2022-07-21T13:35:42;5.38;;;4.85;;
14734;SDS011;7458;49.002;8.472;2022-07-21T13:38:09;6.13;;;5.05;;
14734;SDS011;7458;49.002;8.472;2022-07-21T13:40:35;7.55;;;4.13;;
14734;SDS011;7458;49.002;8.472;2022-07-21T13:43:02;4.55;;;3.92;;
14734;SDS011;7458;49.002;8.472;2022-07-21T13:45:30;11.55;;;4.68;;
14734;SDS011;7458;49.002;8.472;2022-07-21T13:47:55;5.47;;;4.38;;
14734;SDS011;7458;49.002;8.472;2022-07-21T13:50:21;5.53;;;4.82;;
14734;SDS011;7458;49.002;8.472;2022-07-21T13:52:47;7.53;;;4.22;;
14734;SDS011;7458;49.002;8.472;2022-07-21T13:55:13;5.93;;;5.00;;
14734;SDS011;7458;49.002;8.472;2022-07-21T13:57:39;8.20;;;4.35;;
14734;SDS011;7458;49.002;8.472;2022-07-21T14:00:06;6.15;;;3.92;;
14734;SDS011;7458;49.002;8.472;2022-07-21T14:02:35;6.22;;;4.30;;
14734;SDS011;7458;49.002;8.472;2022-07-21T14:05:01;6.97;;;4.88;;
14734;SDS011;7458;49.002;8.472;2022-07-21T14:07:28;7.95;;;4.40;;
14734;SDS011;7458;49.002;8.472;2022-07-21T14:09:55;4.68;;;4.03;;
14734;SDS011;7458;49.002;8.472;2022-07-21T14:12:21;4.90;;;4.45;;
14734;SDS011;7458;49.002;8.472;2022-07-21T14:14:47;4.85;;;4.32;;
14734;SDS011;7458;49.002;8.472;2022-07-21T14:17:16;7.65;;;4.60;;
14734;SDS011;7458;49.002;8.472;2022-07-21T14:19:45;4.57;;;4.07;;
14734;SDS011;7458;49.002;8.472;2022-07-21T14:22:15;6.35;;;4.22;;
14734;SDS011;7458;49.002;8.472;2022-07-21T14:24:43;7.95;;;4.63;;
14734;SDS011;7458;49.002;8.472;2022-07-21T14:27:27;5.18;;;4.68;;
14734;SDS011;7458;49.002;8.472;2022-07-21T14:29:54;5.47;;;4.53;;
14734;SDS011;7458;49.002;8.472;2022-07-21T14:32:20;5.18;;;4.25;;
14734;SDS011;7458;49.002;8.472;2022-07-21T14:34:50;8.75;;;4.70;;
14734;SDS011;7458;49.002;8.472;2022-07-21T14:37:17;7.63;;;4.32;;
14734;SDS011;7458;49.002;8.472;2022-07-21T14:39:44;5.30;;;4.18;;
14734;SDS011;7458;49.002;8.472;2022-07-21T14:42:12;5.03;;;4.53;;
14734;SDS011;7458;49.002;8.472;2022-07-21T14:44:38;5.57;;;4.60;;
14734;SDS011;7458;49.002;8.472;2022-07-21T14:47:05;6.53;;;4.70;;
14734;SDS011;7458;49.002;8.472;2022-07-21T14:49:32;5.38;;;4.85;;
14734;SDS011;7458;49.002;8.472;2022-07-21T14:52:02;6.30;;;4.70;;
14734;SDS011;7458;49.002;8.472;2022-07-21T14:54:29;8.45;;;4.55;;
14734;SDS011;7458;49.002;8.472;2022-07-21T14:56:55;7.30;;;4.50;;
14734;SDS011;7458;49.002;8.472;2022-07-21T14:59:21;4.82;;;4.32;;
14734;SDS011;7458;49.002;8.472;2022-07-21T15:01:47;5.47;;;4.78;;
14734;SDS011;7458;49.002;8.472;2022-07-21T15:04:13;5.25;;;4.22;;
14734;SDS011;7458;49.002;8.472;2022-07-21T15:06:39;6.47;;;5.15;;
14734;SDS011;7458;49.002;8.472;2022-07-21T15:09:05;4.60;;;4.20;;
14734;SDS011;7458;49.002;8.472;2022-07-21T15:11:31;5.25;;;4.75;;
14734;SDS011;7458;49.002;8.472;2022-07-21T15:13:56;6.43;;;4.80;;
14734;SDS011;7458;49.002;8.472;2022-07-21T15:16:22;6.45;;;4.82;;
14734;SDS011;7458;49.002;8.472;2022-07-21T15:18:48;5.05;;;4.55;;
14734;SDS011;7458;49.002;8.472;2022-07-21T15:21:13;5.47;;;4.95;;
14734;SDS011;7458;49.002;8.472;2022-07-21T15:23:39;5.55;;;4.90;;
14734;SDS011;7458;49.002;8.472;2022-07-21T15:26:05;6.15;;;5.20;;
14734;SDS011;7458;49.002;8.472;2022-07-21T15:28:31;7.75;;;6.25;;
14734;SDS011;7458;49.002;8.472;2022-07-21T15:30:57;6.22;;;5.60;;
14734;SDS011;7458;49.002;8.472;2022-07-21T15:33:22;5.78;;;5.22;;
14734;SDS011;7458;49.002;8.472;2022-07-21T15:35:48;6.53;;;5.43;;
14734;SDS011;7458;49.002;8.472;2022-07-21T15:38:18;6.57;;;5.38;;
14734;SDS011;7458;49.002;8.472;2022-07-21T15:40:46;6.03;;;5.40;;
14734;SDS011;7458;49.002;8.472;2022-07-21T15:43:13;6.65;;;5.50;;
14734;SDS011;7458;49.002;8.472;2022-07-21T15:45:39;7.13;;;5.55;;
14734;SDS011;7458;49.002;8.472;2022-07-21T15:48:06;7.10;;;5.20;;